Time;durP1;ratioP1;P1;durP2;ratioP2;P2;SDS_P1;SDS_P2;PMS_P1;PMS_P2;Temp;Humidity;BMP_temperature;BMP_pressure;BME280_temperature;BME280_humidity;BME280_pressure;Samples;Min_cycle;Max_cycle;Signal;HPM_P1;HPM_P2
2023/08/20 00:01:27;;;;;;;12.60;8.45;;;;;;;;;;6239670;28;20060;-78
2023/08/20 00:04:31;;;;;;;13.52;7.72;;;;;;;;;;6258887;28;20041;-77
2023/08/20 00:07:33;;;;;;;9.30;7.32;;;;;;;;;;6260821;28;20044;-76
2023/08/20 00:10:35;;;;;;;11.63;7.78;;;;;;;;;;6261059;28;20087;-77
2023/08/20 00:13:37;;;;;;;12.93;7.35;;;;;;;;;;6258544;28;20045;-78
2023/08/20 00:16:39;;;;;;;14.30;8.25;;;;;;;;;;6261276;28;20064;-78
2023/08/20 00:19:40;;;;;;;10.87;8.10;;;;;;;;;;6261475;28;20041;-78
2023/08/20 00:22:45;;;;;;;12.00;7.97;;;;;;;;;;6286284;28;20044;-76
2023/08/20 00:25:47;;;;;;;12.80;8.02;;;;;;;;;;6262928;28;20402;-77
2023/08/20 00:28:49;;;;;;;11.60;7.85;;;;;;;;;;6262966;28;20099;-79
2023/08/20 00:31:50;;;;;;;13.65;8.18;;;;;;;;;;6269622;28;20056;-76
2023/08/20 00:34:52;;;;;;;10.80;7.73;;;;;;;;;;6303629;28;20056;-76
2023/08/20 00:37:54;;;;;;;10.70;7.28;;;;;;;;;;6267589;28;20751;-78
2023/08/20 00:40:55;;;;;;;11.52;7.35;;;;;;;;;;6244678;28;20056;-78
2023/08/20 00:43:57;;;;;;;10.70;7.15;;;;;;;;;;6262857;28;20068;-78
2023/08/20 00:47:04;;;;;;;11.25;7.15;;;;;;;;;;6263639;28;20059;-77
2023/08/20 00:50:07;;;;;;;10.20;7.30;;;;;;;;;;6260811;28;20457;-79
2023/08/20 00:53:11;;;;;;;12.20;7.82;;;;;;;;;;6264850;28;20041;-77
2023/08/20 00:56:13;;;;;;;12.20;7.18;;;;;;;;;;6262769;28;20044;-78
2023/08/20 00:59:15;;;;;;;9.38;7.10;;;;;;;;;;6261986;28;20045;-76
2023/08/20 01:02:18;;;;;;;13.65;7.55;;;;;;;;;;6260964;28;20044;-78
2023/08/20 01:05:20;;;;;;;8.25;6.75;;;;;;;;;;6262174;28;20036;-78
2023/08/20 01:08:37;;;;;;;10.73;7.22;;;;;;;;;;6258682;28;20044;-77
2023/08/20 01:11:46;;;;;;;11.48;7.78;;;;;;;;;;6259617;28;20053;-77
2023/08/20 01:14:48;;;;;;;11.50;7.65;;;;;;;;;;6261319;28;20050;-77
2023/08/20 01:17:49;;;;;;;11.93;7.78;;;;;;;;;;6256840;28;20052;-76
2023/08/20 01:21:00;;;;;;;8.38;7.03;;;;;;;;;;6255133;28;20059;-77
2023/08/20 01:24:18;;;;;;;13.45;7.40;;;;;;;;;;6256378;28;20519;-77
2023/08/20 01:27:54;;;;;;;9.05;6.15;;;;;;;;;;6260440;28;20120;-77
2023/08/20 01:30:58;;;;;;;9.98;7.00;;;;;;;;;;6249827;28;20049;-77
2023/08/20 01:34:01;;;;;;;10.05;7.10;;;;;;;;;;6258126;28;20664;-77
2023/08/20 01:37:03;;;;;;;11.65;7.70;;;;;;;;;;6254679;28;20052;-76
2023/08/20 01:40:07;;;;;;;10.70;7.13;;;;;;;;;;6287536;28;20068;-78
2023/08/20 01:43:09;;;;;;;12.70;7.70;;;;;;;;;;6255999;28;20052;-76
2023/08/20 01:46:12;;;;;;;10.32;7.20;;;;;;;;;;6257536;28;20045;-77
2023/08/20 01:49:14;;;;;;;12.10;7.63;;;;;;;;;;6256303;28;20083;-76
2023/08/20 01:52:16;;;;;;;15.65;8.50;;;;;;;;;;6273081;28;20044;-76
2023/08/20 01:55:18;;;;;;;12.88;8.88;;;;;;;;;;6265858;28;20045;-77
2023/08/20 01:58:19;;;;;;;18.23;9.15;;;;;;;;;;6250085;28;20053;-76
2023/08/20 02:01:21;;;;;;;14.07;8.15;;;;;;;;;;6263286;28;20037;-79
2023/08/20 02:04:23;;;;;;;11.02;7.60;;;;;;;;;;6260930;28;20091;-78
2023/08/20 02:07:25;;;;;;;9.85;7.85;;;;;;;;;;6256631;28;20041;-76
2023/08/20 02:10:26;;;;;;;9.35;7.30;;;;;;;;;;6259834;28;20044;-76
2023/08/20 02:13:28;;;;;;;11.27;7.60;;;;;;;;;;6262256;28;20048;-76
2023/08/20 02:16:30;;;;;;;10.27;7.57;;;;;;;;;;6246287;28;20051;-78
2023/08/20 02:19:33;;;;;;;9.60;6.60;;;;;;;;;;6262537;28;20033;-77
2023/08/20 02:22:35;;;;;;;10.23;5.63;;;;;;;;;;6260940;28;20404;-76
2023/08/20 02:25:37;;;;;;;11.10;5.93;;;;;;;;;;6263317;28;20056;-76
2023/08/20 02:28:39;;;;;;;11.30;6.90;;;;;;;;;;6263180;28;20052;-78
2023/08/20 02:31:41;;;;;;;15.40;7.60;;;;;;;;;;6258351;28;20041;-77
2023/08/20 02:34:43;;;;;;;13.32;7.07;;;;;;;;;;6260888;28;20041;-78
2023/08/20 02:37:45;;;;;;;15.18;7.30;;;;;;;;;;6263225;28;20052;-77
2023/08/20 02:40:47;;;;;;;16.00;7.25;;;;;;;;;;6279317;28;20044;-78
2023/08/20 02:43:49;;;;;;;10.53;6.63;;;;;;;;;;6264193;28;20041;-78
2023/08/20 02:46:51;;;;;;;10.65;5.97;;;;;;;;;;6268613;28;20060;-78
2023/08/20 02:49:52;;;;;;;7.43;5.60;;;;;;;;;;6249960;28;20048;-77
2023/08/20 02:52:54;;;;;;;8.85;4.80;;;;;;;;;;6262923;28;20453;-76
2023/08/20 02:55:56;;;;;;;6.57;4.53;;;;;;;;;;6229906;28;20045;-76
2023/08/20 02:58:57;;;;;;;8.52;4.25;;;;;;;;;;6265582;28;20063;-79
2023/08/20 03:01:59;;;;;;;8.23;4.63;;;;;;;;;;6280257;28;20128;-78
2023/08/20 03:05:01;;;;;;;7.90;4.65;;;;;;;;;;6262422;28;20049;-76
2023/08/20 03:08:03;;;;;;;6.85;4.28;;;;;;;;;;6259510;28;20558;-76
2023/08/20 03:11:05;;;;;;;7.72;5.07;;;;;;;;;;6242200;28;20139;-76
2023/08/20 03:14:07;;;;;;;10.25;4.93;;;;;;;;;;6285304;28;20499;-76
2023/08/20 03:17:09;;;;;;;7.47;4.38;;;;;;;;;;6260070;28;20067;-79
2023/08/20 03:20:11;;;;;;;9.48;4.30;;;;;;;;;;6260071;28;20051;-76
2023/08/20 03:23:12;;;;;;;7.65;5.22;;;;;;;;;;6263828;28;20087;-77
2023/08/20 03:26:14;;;;;;;8.80;4.75;;;;;;;;;;6259394;28;20056;-78
2023/08/20 03:29:16;;;;;;;8.23;5.10;;;;;;;;;;6294771;28;20051;-76
2023/08/20 03:32:18;;;;;;;11.43;6.50;;;;;;;;;;6260201;28;20041;-77
2023/08/20 03:35:19;;;;;;;9.80;6.60;;;;;;;;;;6259068;28;20396;-77
2023/08/20 03:38:22;;;;;;;12.15;5.70;;;;;;;;;;6254354;28;20045;-76
2023/08/20 03:41:24;;;;;;;10.73;5.90;;;;;;;;;;6254723;28;20071;-78
2023/08/20 03:44:25;;;;;;;10.13;6.45;;;;;;;;;;6275305;28;20041;-78
2023/08/20 03:47:27;;;;;;;10.93;6.57;;;;;;;;;;6257527;28;20052;-79
2023/08/20 03:50:30;;;;;;;16.52;7.78;;;;;;;;;;6261919;28;20053;-78
2023/08/20 03:53:31;;;;;;;12.02;7.82;;;;;;;;;;6274605;28;20053;-79
2023/08/20 03:56:34;;;;;;;11.90;8.20;;;;;;;;;;6292870;28;20056;-78
2023/08/20 03:59:35;;;;;;;12.38;7.82;;;;;;;;;;6259158;28;20049;-76
2023/08/20 04:02:37;;;;;;;14.50;7.88;;;;;;;;;;6259202;28;20048;-78
2023/08/20 04:05:39;;;;;;;14.38;7.90;;;;;;;;;;6272149;28;20044;-78
2023/08/20 04:08:41;;;;;;;14.13;7.93;;;;;;;;;;6256695;28;20040;-78
2023/08/20 04:11:42;;;;;;;21.05;8.95;;;;;;;;;;6269888;28;20052;-76
2023/08/20 04:14:44;;;;;;;16.45;8.40;;;;;;;;;;6312282;28;20106;-76
2023/08/20 04:17:46;;;;;;;16.77;8.73;;;;;;;;;;6288423;28;20060;-76
2023/08/20 04:20:50;;;;;;;16.00;8.23;;;;;;;;;;6272454;28;20045;-77
2023/08/20 04:23:52;;;;;;;30.38;9.40;;;;;;;;;;6284102;28;20047;-78
2023/08/20 04:26:53;;;;;;;19.10;8.30;;;;;;;;;;6253299;28;20043;-78
2023/08/20 04:30:00;;;;;;;18.25;9.70;;;;;;;;;;6269983;28;20102;-78
2023/08/20 04:33:03;;;;;;;13.32;8.40;;;;;;;;;;6302017;28;20106;-78
2023/08/20 04:36:05;;;;;;;21.77;9.65;;;;;;;;;;6271758;28;20060;-76
2023/08/20 04:39:07;;;;;;;19.25;9.38;;;;;;;;;;6282386;28;20642;-76
2023/08/20 04:42:12;;;;;;;19.85;8.85;;;;;;;;;;6267028;28;20414;-76
2023/08/20 04:45:13;;;;;;;13.70;8.20;;;;;;;;;;6299302;28;20048;-77
2023/08/20 04:48:15;;;;;;;13.25;8.68;;;;;;;;;;6268676;28;20048;-76
2023/08/20 04:51:17;;;;;;;14.13;9.05;;;;;;;;;;6267389;28;20045;-77
2023/08/20 04:54:19;;;;;;;10.90;7.93;;;;;;;;;;6297223;28;20048;-78
2023/08/20 04:57:21;;;;;;;12.27;7.40;;;;;;;;;;6305849;28;20040;-77
2023/08/20 05:00:23;;;;;;;12.18;8.20;;;;;;;;;;6285413;28;20569;-75
2023/08/20 05:03:30;;;;;;;12.88;7.90;;;;;;;;;;6283520;28;20119;-77
2023/08/20 05:06:31;;;;;;;62.40;10.48;;;;;;;;;;6266317;28;20059;-77
2023/08/20 05:09:33;;;;;;;11.40;8.18;;;;;;;;;;6251865;28;20052;-77
2023/08/20 05:12:36;;;;;;;11.50;7.57;;;;;;;;;;6252843;28;20423;-77
2023/08/20 05:15:38;;;;;;;14.23;7.72;;;;;;;;;;6269588;28;20041;-75
2023/08/20 05:18:40;;;;;;;12.27;7.68;;;;;;;;;;6272211;28;20051;-76
2023/08/20 05:21:42;;;;;;;11.32;7.60;;;;;;;;;;6242437;28;20049;-77
2023/08/20 05:24:43;;;;;;;15.57;7.43;;;;;;;;;;6254813;28;20491;-78
2023/08/20 05:27:45;;;;;;;11.20;7.95;;;;;;;;;;6259002;28;21814;-78
2023/08/20 05:30:56;;;;;;;12.10;8.23;;;;;;;;;;6265220;28;20037;-78
2023/08/20 05:33:59;;;;;;;11.75;7.50;;;;;;;;;;6266748;28;20036;-79
2023/08/20 05:37:01;;;;;;;9.43;7.40;;;;;;;;;;6247847;28;20131;-76
2023/08/20 05:40:03;;;;;;;12.70;7.67;;;;;;;;;;6300761;28;20274;-76
2023/08/20 05:43:08;;;;;;;13.52;8.40;;;;;;;;;;6275385;28;20136;-78
2023/08/20 05:46:10;;;;;;;10.80;7.10;;;;;;;;;;6274665;28;20052;-76
2023/08/20 05:49:15;;;;;;;11.17;7.13;;;;;;;;;;6271284;28;20053;-75
2023/08/20 05:52:17;;;;;;;11.60;7.20;;;;;;;;;;6286102;28;20522;-76
2023/08/20 05:55:19;;;;;;;13.05;6.45;;;;;;;;;;6249343;28;20048;-77
2023/08/20 05:58:21;;;;;;;11.50;6.00;;;;;;;;;;6270602;28;20046;-78
2023/08/20 06:01:23;;;;;;;9.90;5.90;;;;;;;;;;6277142;28;20041;-77
2023/08/20 06:04:24;;;;;;;7.13;5.57;;;;;;;;;;6270823;28;20048;-77
2023/08/20 06:07:26;;;;;;;8.43;6.07;;;;;;;;;;6285637;28;20040;-79
2023/08/20 06:10:28;;;;;;;9.53;6.30;;;;;;;;;;6294884;28;20418;-78
2023/08/20 06:13:30;;;;;;;8.10;5.77;;;;;;;;;;6275261;28;20044;-80
2023/08/20 06:16:32;;;;;;;8.90;5.68;;;;;;;;;;6293300;28;20443;-77
2023/08/20 06:19:34;;;;;;;11.77;6.35;;;;;;;;;;6291003;28;20059;-80
2023/08/20 06:22:37;;;;;;;9.93;5.65;;;;;;;;;;6291617;28;20044;-79
2023/08/20 06:25:39;;;;;;;8.48;5.68;;;;;;;;;;6287494;28;20051;-80
2023/08/20 06:28:41;;;;;;;9.32;5.50;;;;;;;;;;6291265;28;20056;-79
2023/08/20 06:31:42;;;;;;;6.90;5.28;;;;;;;;;;6291614;28;20064;-79
2023/08/20 06:34:44;;;;;;;8.68;5.07;;;;;;;;;;6293856;28;20055;-78
2023/08/20 06:37:46;;;;;;;10.63;5.70;;;;;;;;;;6293117;28;20045;-79
2023/08/20 06:40:47;;;;;;;8.23;4.70;;;;;;;;;;6284875;28;20095;-80
2023/08/20 06:43:49;;;;;;;10.88;5.32;;;;;;;;;;6309262;28;20056;-78
2023/08/20 06:46:51;;;;;;;7.22;5.13;;;;;;;;;;6291409;28;20040;-80
2023/08/20 06:49:53;;;;;;;6.30;5.00;;;;;;;;;;6291860;28;20115;-80
2023/08/20 06:52:55;;;;;;;5.40;4.53;;;;;;;;;;6286182;28;20059;-81
2023/08/20 06:55:56;;;;;;;8.73;5.20;;;;;;;;;;6305498;28;20048;-81
2023/08/20 06:58:58;;;;;;;7.07;5.43;;;;;;;;;;6287021;28;20051;-80
2023/08/20 07:02:00;;;;;;;8.05;5.63;;;;;;;;;;6246670;28;20156;-80
2023/08/20 07:05:01;;;;;;;8.77;5.57;;;;;;;;;;6254870;28;20041;-80
2023/08/20 07:08:03;;;;;;;8.40;5.70;;;;;;;;;;6259726;28;20060;-79
2023/08/20 07:11:05;;;;;;;7.82;5.75;;;;;;;;;;6262255;28;20045;-79
2023/08/20 07:14:07;;;;;;;8.98;5.95;;;;;;;;;;6259256;28;20506;-81
2023/08/20 07:17:11;;;;;;;7.25;5.00;;;;;;;;;;6265067;28;20053;-81
2023/08/20 07:20:12;;;;;;;8.43;5.80;;;;;;;;;;6265360;28;20048;-79
2023/08/20 07:23:14;;;;;;;8.20;5.05;;;;;;;;;;6263740;28;20044;-81
2023/08/20 07:26:16;;;;;;;8.02;4.78;;;;;;;;;;6262343;28;20045;-80
2023/08/20 07:29:18;;;;;;;7.63;5.32;;;;;;;;;;6274540;28;20524;-80
2023/08/20 07:32:19;;;;;;;6.18;5.07;;;;;;;;;;6264958;28;20044;-80
2023/08/20 07:35:21;;;;;;;8.98;5.88;;;;;;;;;;6262443;28;20568;-80
2023/08/20 07:38:23;;;;;;;14.38;7.03;;;;;;;;;;6262509;28;20041;-80
2023/08/20 07:41:24;;;;;;;7.00;5.57;;;;;;;;;;6274100;28;20057;-77
2023/08/20 07:44:27;;;;;;;10.93;7.80;;;;;;;;;;6268249;28;20041;-78
2023/08/20 07:47:29;;;;;;;13.05;8.80;;;;;;;;;;6264015;28;20045;-78
2023/08/20 07:50:31;;;;;;;12.00;8.32;;;;;;;;;;6265608;28;22356;-79
2023/08/20 07:53:34;;;;;;;15.60;9.98;;;;;;;;;;6264087;28;20114;-77
2023/08/20 07:56:35;;;;;;;17.10;12.35;;;;;;;;;;6247061;28;20052;-78
2023/08/20 07:59:38;;;;;;;17.88;12.15;;;;;;;;;;6263530;28;20057;-78
2023/08/20 08:02:39;;;;;;;19.48;12.13;;;;;;;;;;6246107;28;20049;-80
2023/08/20 08:05:41;;;;;;;18.30;12.10;;;;;;;;;;6287371;28;20406;-79
2023/08/20 08:08:46;;;;;;;18.13;12.30;;;;;;;;;;6256623;28;20049;-79
2023/08/20 08:11:49;;;;;;;21.02;14.05;;;;;;;;;;6262270;28;20132;-79
2023/08/20 08:14:50;;;;;;;21.65;14.10;;;;;;;;;;6259778;28;20768;-79
2023/08/20 08:17:52;;;;;;;23.50;14.47;;;;;;;;;;6259816;28;20045;-78
2023/08/20 08:20:54;;;;;;;17.93;12.87;;;;;;;;;;6260214;28;20103;-77
2023/08/20 08:23:55;;;;;;;20.43;14.60;;;;;;;;;;6240038;28;20053;-79
2023/08/20 08:26:57;;;;;;;21.00;14.60;;;;;;;;;;6258459;28;20118;-82
2023/08/20 08:29:59;;;;;;;21.63;14.30;;;;;;;;;;6255054;28;20516;-82
2023/08/20 08:33:01;;;;;;;18.05;13.00;;;;;;;;;;6256964;28;20047;-80
2023/08/20 08:36:02;;;;;;;19.83;14.03;;;;;;;;;;6272381;28;20044;-81
2023/08/20 08:39:04;;;;;;;18.08;13.90;;;;;;;;;;6257011;28;20061;-81
2023/08/20 08:42:07;;;;;;;21.75;14.38;;;;;;;;;;6259120;28;20100;-81
2023/08/20 08:45:10;;;;;;;20.20;14.43;;;;;;;;;;6261608;28;20072;-81
2023/08/20 08:48:12;;;;;;;18.70;13.15;;;;;;;;;;6261094;28;20048;-81
2023/08/20 08:51:14;;;;;;;21.38;13.80;;;;;;;;;;6273594;28;20049;-82
2023/08/20 08:54:16;;;;;;;18.60;13.23;;;;;;;;;;6258959;28;20102;-80
2023/08/20 08:57:18;;;;;;;19.60;13.05;;;;;;;;;;6245257;28;20037;-81
2023/08/20 09:00:20;;;;;;;19.30;13.57;;;;;;;;;;6236291;28;20045;-80
2023/08/20 09:03:24;;;;;;;17.02;12.65;;;;;;;;;;6259093;28;20045;-82
2023/08/20 09:06:25;;;;;;;17.48;13.38;;;;;;;;;;6254809;28;20049;-81
2023/08/20 09:09:29;;;;;;;19.40;12.43;;;;;;;;;;6240064;28;21150;-81
2023/08/20 09:12:34;;;;;;;17.50;12.73;;;;;;;;;;6258707;28;20041;-81
2023/08/20 09:15:35;;;;;;;17.08;13.00;;;;;;;;;;6260060;28;20037;-80
2023/08/20 09:18:40;;;;;;;15.20;12.32;;;;;;;;;;6258892;28;20426;-81
2023/08/20 09:21:47;;;;;;;15.98;12.25;;;;;;;;;;6254655;28;20055;-80
2023/08/20 09:24:54;;;;;;;14.88;11.63;;;;;;;;;;6257422;28;20495;-80
2023/08/20 09:27:57;;;;;;;14.40;11.75;;;;;;;;;;6239598;28;20388;-81
2023/08/20 09:31:04;;;;;;;13.77;9.98;;;;;;;;;;6259612;28;20045;-80
2023/08/20 09:34:13;;;;;;;11.43;9.52;;;;;;;;;;6254676;28;20098;-80
2023/08/20 09:37:17;;;;;;;9.38;8.15;;;;;;;;;;6258017;28;20045;-80
2023/08/20 09:40:20;;;;;;;10.68;8.95;;;;;;;;;;6261938;28;20048;-81
2023/08/20 09:43:30;;;;;;;10.18;9.05;;;;;;;;;;6284895;28;20517;-81
2023/08/20 09:46:35;;;;;;;11.23;8.90;;;;;;;;;;6300966;28;20097;-81
2023/08/20 09:49:41;;;;;;;11.60;8.98;;;;;;;;;;6301431;28;20430;-81
2023/08/20 09:52:59;;;;;;;11.70;8.85;;;;;;;;;;6283450;28;20041;-79
2023/08/20 09:56:21;;;;;;;11.50;8.85;;;;;;;;;;6289950;28;20151;-80
2023/08/20 09:59:24;;;;;;;11.07;8.70;;;;;;;;;;6301692;28;20825;-79
2023/08/20 10:02:26;;;;;;;10.45;7.68;;;;;;;;;;6285151;28;20653;-80
2023/08/20 10:05:28;;;;;;;9.88;8.48;;;;;;;;;;6289507;28;20047;-78
2023/08/20 10:08:30;;;;;;;12.65;9.82;;;;;;;;;;6284805;28;20044;-78
2023/08/20 10:11:31;;;;;;;;;;;;;;;;;;6286549;28;20422;-79
2023/08/20 10:14:34;;;;;;;9.05;6.40;;;;;;;;;;6266616;28;20407;-78
2023/08/20 10:17:36;;;;;;;;;;;;;;;;;;6286167;28;20060;-78
2023/08/20 10:20:40;;;;;;;11.60;8.52;;;;;;;;;;6284524;28;19921;-80
2023/08/20 10:23:42;;;;;;;10.32;8.77;;;;;;;;;;6263011;28;20048;-78
2023/08/20 10:26:46;;;;;;;9.23;7.88;;;;;;;;;;6270672;28;20410;-80
2023/08/20 10:29:48;;;;;;;10.25;6.88;;;;;;;;;;6290946;28;20131;-79
2023/08/20 10:32:51;;;;;;;11.65;8.75;;;;;;;;;;6289227;28;20044;-79
2023/08/20 10:35:53;;;;;;;8.35;6.78;;;;;;;;;;6289380;28;20178;-80
2023/08/20 10:38:56;;;;;;;7.60;6.65;;;;;;;;;;6266738;28;20044;-80
2023/08/20 10:42:09;;;;;;;23.52;15.35;;;;;;;;;;6287602;28;20426;-79
2023/08/20 10:45:11;;;;;;;7.55;6.45;;;;;;;;;;6268422;28;20058;-79
2023/08/20 10:48:13;;;;;;;6.22;5.45;;;;;;;;;;6278420;28;20048;-78
2023/08/20 10:51:18;;;;;;;11.43;9.23;;;;;;;;;;6301759;28;20048;-78
2023/08/20 10:54:20;;;;;;;8.60;7.18;;;;;;;;;;6273813;28;20059;-79
2023/08/20 10:57:32;;;;;;;;;;;;;;;;;;6268682;28;20041;-80
2023/08/20 11:00:34;;;;;;;8.25;6.88;;;;;;;;;;6253186;28;19924;-81
2023/08/20 11:03:36;;;;;;;7.18;6.45;;;;;;;;;;6281920;28;20047;-81
2023/08/20 11:06:39;;;;;;;8.35;6.43;;;;;;;;;;6287220;28;20516;-81
2023/08/20 11:09:42;;;;;;;7.95;6.63;;;;;;;;;;6287510;28;20055;-80
2023/08/20 11:12:46;;;;;;;6.75;5.88;;;;;;;;;;6287329;28;20501;-80
2023/08/20 11:15:47;;;;;;;8.52;5.85;;;;;;;;;;6289597;28;20076;-78
2023/08/20 11:18:53;;;;;;;8.93;6.55;;;;;;;;;;6297865;28;20044;-80
2023/08/20 11:21:55;;;;;;;8.05;7.25;;;;;;;;;;6263411;28;20125;-79
2023/08/20 11:24:56;;;;;;;7.05;6.35;;;;;;;;;;6283718;28;20146;-79
2023/08/20 11:27:58;;;;;;;7.00;6.30;;;;;;;;;;6281403;28;20636;-80
2023/08/20 11:31:01;;;;;;;8.75;6.35;;;;;;;;;;6268886;28;20051;-80
2023/08/20 11:34:04;;;;;;;8.82;7.93;;;;;;;;;;6286119;28;20052;-82
2023/08/20 11:37:06;;;;;;;7.78;6.63;;;;;;;;;;6265189;28;20522;-80
2023/08/20 11:40:08;;;;;;;7.50;6.68;;;;;;;;;;6295814;28;20032;-80
2023/08/20 11:43:11;;;;;;;6.10;5.47;;;;;;;;;;6279854;28;20051;-80
2023/08/20 11:46:19;;;;;;;7.90;6.68;;;;;;;;;;6286021;28;20048;-80
2023/08/20 11:49:29;;;;;;;6.57;5.97;;;;;;;;;;6255275;28;20041;-80
2023/08/20 11:52:33;;;;;;;7.22;6.53;;;;;;;;;;6255028;28;20053;-80
2023/08/20 11:55:34;;;;;;;9.02;6.82;;;;;;;;;;6252420;28;20052;-79
2023/08/20 11:58:36;;;;;;;8.07;7.38;;;;;;;;;;6260567;28;20048;-80
2023/08/20 12:01:38;;;;;;;7.40;6.32;;;;;;;;;;6253853;28;20048;-79
2023/08/20 12:04:40;;;;;;;7.47;6.50;;;;;;;;;;6255273;28;20096;-80
2023/08/20 12:07:41;;;;;;;7.78;6.90;;;;;;;;;;6256489;28;20565;-81
2023/08/20 12:10:43;;;;;;;7.57;6.10;;;;;;;;;;6250771;28;20053;-79
2023/08/20 12:13:47;;;;;;;8.23;6.50;;;;;;;;;;6255925;28;20049;-81
2023/08/20 12:16:52;;;;;;;6.30;5.70;;;;;;;;;;6253487;28;20091;-80
2023/08/20 12:19:54;;;;;;;6.47;5.65;;;;;;;;;;6263504;28;20064;-81
2023/08/20 12:23:05;;;;;;;5.88;5.28;;;;;;;;;;6259294;28;20049;-80
2023/08/20 12:26:07;;;;;;;6.95;6.28;;;;;;;;;;6259719;28;20104;-78
2023/08/20 12:29:09;;;;;;;7.82;6.35;;;;;;;;;;6250336;28;20069;-80
2023/08/20 12:32:11;;;;;;;6.18;5.50;;;;;;;;;;6261705;28;20041;-79
2023/08/20 12:35:13;;;;;;;7.20;6.20;;;;;;;;;;6257110;28;20037;-80
2023/08/20 12:38:15;;;;;;;6.50;5.38;;;;;;;;;;6257391;28;20044;-81
2023/08/20 12:41:19;;;;;;;6.97;6.03;;;;;;;;;;6258972;28;20048;-79
2023/08/20 12:44:21;;;;;;;7.72;6.13;;;;;;;;;;6258733;28;20580;-81
2023/08/20 12:47:22;;;;;;;6.70;6.00;;;;;;;;;;6254741;28;20052;-81
2023/08/20 12:50:25;;;;;;;7.28;5.65;;;;;;;;;;6256565;28;20534;-79
2023/08/20 12:53:27;;;;;;;6.00;5.38;;;;;;;;;;6254297;28;20056;-80
2023/08/20 12:56:28;;;;;;;6.40;5.70;;;;;;;;;;6253773;28;20549;-79
2023/08/20 12:59:30;;;;;;;6.70;5.70;;;;;;;;;;6252505;28;20202;-79
2023/08/20 13:02:32;;;;;;;;;;;;;;;;;;6280329;28;20180;-79
2023/08/20 13:05:34;;;;;;;6.90;5.53;;;;;;;;;;6292813;28;19924;-80
2023/08/20 13:08:36;;;;;;;6.70;5.95;;;;;;;;;;6283568;28;20082;-80
2023/08/20 13:11:39;;;;;;;7.07;5.60;;;;;;;;;;6262783;28;20044;-81
2023/08/20 13:14:41;;;;;;;8.75;6.20;;;;;;;;;;6279105;28;20048;-79
2023/08/20 13:17:45;;;;;;;;;;;;;;;;;;6260139;28;20049;-79
2023/08/20 13:20:47;;;;;;;9.38;5.93;;;;;;;;;;6297891;28;19932;-79
2023/08/20 13:23:48;;;;;;;7.03;5.32;;;;;;;;;;6280993;28;20442;-79
2023/08/20 13:26:51;;;;;;;6.10;5.13;;;;;;;;;;6286835;28;20049;-80
2023/08/20 13:29:53;;;;;;;6.05;5.45;;;;;;;;;;6284572;28;20052;-80
2023/08/20 13:32:55;;;;;;;6.97;5.47;;;;;;;;;;6283606;28;20055;-81
2023/08/20 13:35:57;;;;;;;6.13;5.53;;;;;;;;;;6281255;28;20122;-79
2023/08/20 13:38:59;;;;;;;;;;;;;;;;;;6275684;28;20089;-79
2023/08/20 13:42:00;;;;;;;7.00;5.88;;;;;;;;;;6280983;28;20090;-78
2023/08/20 13:45:03;;;;;;;6.70;5.53;;;;;;;;;;6281579;28;20055;-79
2023/08/20 13:48:05;;;;;;;7.15;5.93;;;;;;;;;;6258982;28;20136;-79
2023/08/20 13:51:07;;;;;;;7.32;5.75;;;;;;;;;;6260422;28;20049;-78
2023/08/20 13:54:09;;;;;;;6.97;6.38;;;;;;;;;;6258364;28;20049;-79
2023/08/20 13:57:11;;;;;;;7.53;6.10;;;;;;;;;;6261483;28;20187;-80
2023/08/20 14:00:13;;;;;;;7.20;5.88;;;;;;;;;;6262947;28;20415;-80
2023/08/20 14:03:14;;;;;;;;;;;;;;;;;;6277310;28;20052;-80
2023/08/20 14:06:16;;;;;;;5.72;5.18;;;;;;;;;;6261883;28;19927;-80
2023/08/20 14:09:18;;;;;;;;;;;;;;;;;;6262524;28;20119;-79
2023/08/20 14:12:20;;;;;;;7.35;6.15;;;;;;;;;;6265299;28;19931;-80
2023/08/20 14:15:22;;;;;;;7.82;5.78;;;;;;;;;;6262784;28;20069;-77
2023/08/20 14:18:23;;;;;;;6.78;5.80;;;;;;;;;;6248881;28;20080;-80
2023/08/20 14:21:25;;;;;;;9.55;6.05;;;;;;;;;;6264540;28;20056;-79
2023/08/20 14:24:27;;;;;;;6.55;5.70;;;;;;;;;;6263236;28;20120;-78
2023/08/20 14:27:28;;;;;;;6.50;5.55;;;;;;;;;;6261876;28;20060;-78
2023/08/20 14:30:30;;;;;;;6.95;5.28;;;;;;;;;;6262525;28;20052;-78
2023/08/20 14:33:31;;;;;;;5.82;5.30;;;;;;;;;;6264549;28;20123;-77
2023/08/20 14:36:33;;;;;;;7.57;5.80;;;;;;;;;;6249933;28;20139;-76
2023/08/20 14:39:35;;;;;;;6.10;5.20;;;;;;;;;;6261157;28;20056;-76
2023/08/20 14:42:37;;;;;;;;;;;;;;;;;;6267648;28;20041;-78
2023/08/20 14:45:39;;;;;;;6.15;4.90;;;;;;;;;;6264562;28;19920;-78
2023/08/20 14:48:42;;;;;;;6.15;5.40;;;;;;;;;;6261029;28;20051;-79
2023/08/20 14:51:44;;;;;;;5.97;5.00;;;;;;;;;;6247857;28;20045;-79
2023/08/20 14:54:46;;;;;;;5.43;4.90;;;;;;;;;;6262607;28;20045;-76
2023/08/20 14:57:48;;;;;;;6.60;5.20;;;;;;;;;;6263654;28;20049;-75
2023/08/20 15:00:53;;;;;;;5.90;5.30;;;;;;;;;;6256122;28;20040;-77
2023/08/20 15:03:54;;;;;;;6.07;5.10;;;;;;;;;;6259579;28;20052;-77
2023/08/20 15:06:56;;;;;;;5.78;5.10;;;;;;;;;;6258597;28;20138;-78
2023/08/20 15:09:58;;;;;;;5.78;4.88;;;;;;;;;;6276574;28;20052;-78
2023/08/20 15:12:59;;;;;;;5.82;4.97;;;;;;;;;;6260725;28;20060;-79
2023/08/20 15:16:01;;;;;;;6.47;5.03;;;;;;;;;;6273846;28;20045;-77
2023/08/20 15:19:03;;;;;;;;;;;;;;;;;;6258156;28;20499;-77
2023/08/20 15:22:04;;;;;;;5.47;4.20;;;;;;;;;;6245166;28;19928;-78
2023/08/20 15:25:12;;;;;;;4.13;3.60;;;;;;;;;;6256053;28;20515;-79
2023/08/20 15:28:14;;;;;;;3.58;3.28;;;;;;;;;;6259514;28;20048;-76
2023/08/20 15:31:16;;;;;;;3.58;3.28;;;;;;;;;;6260321;28;20183;-76
2023/08/20 15:34:18;;;;;;;3.72;3.42;;;;;;;;;;6256996;28;20045;-78
2023/08/20 15:37:19;;;;;;;;;;;;;;;;;;6258417;28;20053;-79
2023/08/20 15:40:21;;;;;;;4.72;3.33;;;;;;;;;;6254966;28;19960;-79
2023/08/20 15:43:23;;;;;;;4.05;3.35;;;;;;;;;;6259592;28;20501;-79
2023/08/20 15:46:25;;;;;;;4.97;3.20;;;;;;;;;;6259439;28;20041;-78
2023/08/20 15:49:27;;;;;;;3.65;3.05;;;;;;;;;;6258613;28;20052;-79
2023/08/20 15:52:29;;;;;;;3.90;3.50;;;;;;;;;;6257416;28;20037;-79
2023/08/20 15:55:31;;;;;;;5.03;3.40;;;;;;;;;;6241780;28;20045;-80
2023/08/20 15:58:32;;;;;;;4.55;3.83;;;;;;;;;;6259201;28;20056;-80
2023/08/20 16:01:34;;;;;;;;;;;;;;;;;;6262549;28;20499;-80
2023/08/20 16:04:36;;;;;;;3.90;3.20;;;;;;;;;;6272234;28;19927;-81
2023/08/20 16:07:37;;;;;;;3.63;3.30;;;;;;;;;;6286093;28;20064;-79
2023/08/20 16:10:40;;;;;;;4.38;2.95;;;;;;;;;;6261353;28;20040;-81
2023/08/20 16:13:45;;;;;;;4.43;3.08;;;;;;;;;;6276635;28;20041;-79
2023/08/20 16:16:47;;;;;;;3.97;3.10;;;;;;;;;;6257391;28;20410;-80
2023/08/20 16:19:48;;;;;;;5.05;3.22;;;;;;;;;;6261832;28;20041;-80
2023/08/20 16:22:50;;;;;;;4.05;3.03;;;;;;;;;;6244226;28;20037;-78
2023/08/20 16:25:52;;;;;;;4.40;3.20;;;;;;;;;;6261114;28;20051;-80
2023/08/20 16:28:54;;;;;;;3.33;3.03;;;;;;;;;;6262848;28;20049;-81
2023/08/20 16:31:55;;;;;;;3.00;2.70;;;;;;;;;;6261385;28;20065;-81
2023/08/20 16:34:57;;;;;;;5.07;2.97;;;;;;;;;;6260602;28;20495;-81
2023/08/20 16:37:59;;;;;;;3.22;2.92;;;;;;;;;;6261176;28;20048;-79
2023/08/20 16:41:04;;;;;;;4.88;2.92;;;;;;;;;;6246448;28;20518;-79
2023/08/20 16:44:06;;;;;;;4.07;2.80;;;;;;;;;;6260792;28;20053;-77
2023/08/20 16:47:08;;;;;;;4.88;2.92;;;;;;;;;;6263079;28;20110;-79
2023/08/20 16:50:09;;;;;;;4.88;2.90;;;;;;;;;;6286465;28;20779;-79
2023/08/20 16:53:11;;;;;;;3.42;2.88;;;;;;;;;;6229001;28;20371;-80
2023/08/20 16:56:13;;;;;;;5.88;3.15;;;;;;;;;;6262232;28;20083;-80
2023/08/20 16:59:14;;;;;;;3.72;2.88;;;;;;;;;;6285038;28;20083;-79
2023/08/20 17:02:16;;;;;;;3.65;2.75;;;;;;;;;;6284771;28;20124;-80
2023/08/20 17:05:18;;;;;;;5.53;3.15;;;;;;;;;;6269204;28;20045;-80
2023/08/20 17:08:20;;;;;;;5.43;3.47;;;;;;;;;;6270994;28;20502;-78
2023/08/20 17:11:22;;;;;;;3.42;3.13;;;;;;;;;;6289482;28;20059;-77
2023/08/20 17:14:25;;;;;;;4.75;3.22;;;;;;;;;;6268214;28;20037;-79
2023/08/20 17:17:29;;;;;;;5.15;3.28;;;;;;;;;;6302287;28;20044;-80
2023/08/20 17:20:31;;;;;;;3.33;3.05;;;;;;;;;;6256195;28;20407;-77
2023/08/20 17:23:32;;;;;;;4.18;3.75;;;;;;;;;;6285187;28;20040;-77
2023/08/20 17:26:34;;;;;;;5.50;3.22;;;;;;;;;;6283545;28;20117;-80
2023/08/20 17:29:36;;;;;;;3.90;3.25;;;;;;;;;;6290148;28;20138;-79
2023/08/20 17:32:38;;;;;;;4.85;2.92;;;;;;;;;;6290827;28;20062;-76
2023/08/20 17:35:40;;;;;;;3.30;3.00;;;;;;;;;;6272292;28;20045;-79
2023/08/20 17:38:42;;;;;;;3.58;3.28;;;;;;;;;;6292834;28;20127;-78
2023/08/20 17:41:45;;;;;;;5.65;3.45;;;;;;;;;;6292334;28;20040;-77
2023/08/20 17:44:47;;;;;;;4.75;3.50;;;;;;;;;;6289939;28;20499;-75
2023/08/20 17:47:49;;;;;;;3.33;2.85;;;;;;;;;;6289890;28;20051;-78
2023/08/20 17:50:50;;;;;;;3.78;3.10;;;;;;;;;;6292959;28;20469;-77
2023/08/20 17:53:52;;;;;;;5.10;3.38;;;;;;;;;;6278515;28;20077;-77
2023/08/20 17:56:54;;;;;;;3.55;3.22;;;;;;;;;;6289062;28;20040;-77
2023/08/20 17:59:56;;;;;;;4.15;3.25;;;;;;;;;;6261824;28;20048;-79
2023/08/20 18:02:58;;;;;;;6.00;3.72;;;;;;;;;;6264611;28;20048;-78
2023/08/20 18:06:00;;;;;;;;;;;;;;;;;;6266770;28;20053;-79
2023/08/20 18:09:02;;;;;;;4.72;3.28;;;;;;;;;;6262388;28;19956;-76
2023/08/20 18:12:04;;;;;;;4.80;3.60;;;;;;;;;;6262729;28;20048;-77